sensor_id;sensor_type;location;lat;lon;timestamp;P1;durP1;ratioP1;P2;durP2;ratioP2
12842;SDS011;35724;49.324;-123.118;2023-02-28T00:10:04;1.85;;;1.27;;
12842;SDS011;35724;49.324;-123.118;2023-02-28T00:20:12;2.85;;;1.63;;
12842;SDS011;35724;49.324;-123.118;2023-02-28T00:30:22;2.47;;;1.70;;
12842;SDS011;35724;49.324;-123.118;2023-02-28T00:40:30;2.72;;;1.50;;
12842;SDS011;35724;49.324;-123.118;2023-02-28T00:50:39;2.38;;;1.48;;
12842;SDS011;35724;49.324;-123.118;2023-02-28T01:00:46;1.40;;;1.30;;
12842;SDS011;35724;49.324;-123.118;2023-02-28T01:10:56;2.00;;;1.33;;
12842;SDS011;35724;49.324;-123.118;2023-02-28T01:21:03;2.03;;;1.48;;
12842;SDS011;35724;49.324;-123.118;2023-02-28T01:31:13;1.75;;;1.33;;
12842;SDS011;35724;49.324;-123.118;2023-02-28T01:41:22;2.30;;;1.40;;
12842;SDS011;35724;49.324;-123.118;2023-02-28T01:51:33;2.55;;;1.50;;
12842;SDS011;35724;49.324;-123.118;2023-02-28T02:01:44;3.55;;;1.63;;
12842;SDS011;35724;49.324;-123.118;2023-02-28T02:11:55;3.22;;;1.50;;
12842;SDS011;35724;49.324;-123.118;2023-02-28T02:22:12;2.30;;;1.65;;
12842;SDS011;35724;49.324;-123.118;2023-02-28T02:32:52;2.67;;;1.88;;
12842;SDS011;35724;49.324;-123.118;2023-02-28T02:43:13;1.90;;;1.38;;
12842;SDS011;35724;49.324;-123.118;2023-02-28T02:53:26;2.70;;;1.90;;
12842;SDS011;35724;49.324;-123.118;2023-02-28T03:03:46;2.28;;;1.42;;
12842;SDS011;35724;49.324;-123.118;2023-02-28T03:14:03;2.53;;;1.52;;
12842;SDS011;35724;49.324;-123.118;2023-02-28T03:24:36;2.28;;;1.60;;
12842;SDS011;35724;49.324;-123.118;2023-02-28T03:34:53;3.05;;;2.75;;
12842;SDS011;35724;49.324;-123.118;2023-02-28T03:45:11;3.63;;;2.60;;
12842;SDS011;35724;49.324;-123.118;2023-02-28T03:55:20;3.58;;;2.45;;
12842;SDS011;35724;49.324;-123.118;2023-02-28T04:05:35;5.78;;;2.20;;
12842;SDS011;35724;49.324;-123.118;2023-02-28T04:15:54;3.72;;;1.60;;
12842;SDS011;35724;49.324;-123.118;2023-02-28T04:26:03;2.70;;;1.48;;
12842;SDS011;35724;49.324;-123.118;2023-02-28T04:36:10;3.30;;;1.77;;
12842;SDS011;35724;49.324;-123.118;2023-02-28T04:46:19;2.17;;;1.58;;
12842;SDS011;35724;49.324;-123.118;2023-02-28T04:56:30;2.33;;;1.65;;
12842;SDS011;35724;49.324;-123.118;2023-02-28T05:06:39;3.15;;;1.50;;
12842;SDS011;35724;49.324;-123.118;2023-02-28T05:16:46;2.20;;;1.48;;
12842;SDS011;35724;49.324;-123.118;2023-02-28T05:26:54;1.10;;;1.00;;
12842;SDS011;35724;49.324;-123.118;2023-02-28T05:37:02;1.23;;;1.10;;
12842;SDS011;35724;49.324;-123.118;2023-02-28T05:47:11;0.90;;;0.90;;
12842;SDS011;35724;49.324;-123.118;2023-02-28T05:57:19;0.80;;;0.80;;
12842;SDS011;35724;49.324;-123.118;2023-02-28T06:07:28;0.82;;;0.73;;
12842;SDS011;35724;49.324;-123.118;2023-02-28T06:17:35;0.80;;;0.80;;
12842;SDS011;35724;49.324;-123.118;2023-02-28T06:27:44;0.90;;;0.90;;
12842;SDS011;35724;49.324;-123.118;2023-02-28T06:37:54;1.65;;;1.08;;
12842;SDS011;35724;49.324;-123.118;2023-02-28T06:48:03;1.23;;;1.13;;
12842;SDS011;35724;49.324;-123.118;2023-02-28T06:58:14;1.30;;;1.20;;
12842;SDS011;35724;49.324;-123.118;2023-02-28T07:08:24;1.50;;;1.20;;
12842;SDS011;35724;49.324;-123.118;2023-02-28T07:18:32;1.30;;;1.20;;
12842;SDS011;35724;49.324;-123.118;2023-02-28T07:28:41;1.00;;;0.93;;
12842;SDS011;35724;49.324;-123.118;2023-02-28T07:38:48;0.95;;;0.80;;
12842;SDS011;35724;49.324;-123.118;2023-02-28T07:48:58;0.80;;;0.80;;
12842;SDS011;35724;49.324;-123.118;2023-02-28T07:59:07;0.85;;;0.85;;
12842;SDS011;35724;49.324;-123.118;2023-02-28T08:09:15;0.75;;;0.75;;
12842;SDS011;35724;49.324;-123.118;2023-02-28T08:19:23;0.77;;;0.77;;
12842;SDS011;35724;49.324;-123.118;2023-02-28T08:29:32;0.73;;;0.70;;
12842;SDS011;35724;49.324;-123.118;2023-02-28T08:39:39;0.70;;;0.70;;
12842;SDS011;35724;49.324;-123.118;2023-02-28T08:49:48;0.73;;;0.60;;
12842;SDS011;35724;49.324;-123.118;2023-02-28T08:59:56;0.63;;;0.63;;
12842;SDS011;35724;49.324;-123.118;2023-02-28T09:10:10;0.60;;;0.60;;
12842;SDS011;35724;49.324;-123.118;2023-02-28T09:20:17;0.60;;;0.60;;
12842;SDS011;35724;49.324;-123.118;2023-02-28T09:30:26;0.50;;;0.50;;
12842;SDS011;35724;49.324;-123.118;2023-02-28T09:40:35;0.60;;;0.60;;
12842;SDS011;35724;49.324;-123.118;2023-02-28T09:50:48;0.60;;;0.60;;
12842;SDS011;35724;49.324;-123.118;2023-02-28T10:00:59;0.40;;;0.40;;
12842;SDS011;35724;49.324;-123.118;2023-02-28T10:11:15;0.50;;;0.50;;
12842;SDS011;35724;49.324;-123.118;2023-02-28T10:21:26;0.50;;;0.50;;
12842;SDS011;35724;49.324;-123.118;2023-02-28T10:31:42;0.60;;;0.60;;
12842;SDS011;35724;49.324;-123.118;2023-02-28T10:41:49;0.50;;;0.50;;
12842;SDS011;35724;49.324;-123.118;2023-02-28T10:51:59;0.63;;;0.52;;
12842;SDS011;35724;49.324;-123.118;2023-02-28T11:12:40;0.55;;;0.55;;
12842;SDS011;35724;49.324;-123.118;2023-02-28T11:22:54;0.50;;;0.50;;
12842;SDS011;35724;49.324;-123.118;2023-02-28T11:33:26;0.57;;;0.57;;
12842;SDS011;35724;49.324;-123.118;2023-02-28T11:43:38;0.50;;;0.50;;
12842;SDS011;35724;49.324;-123.118;2023-02-28T11:54:00;0.40;;;0.40;;
12842;SDS011;35724;49.324;-123.118;2023-02-28T12:04:25;0.45;;;0.45;;
12842;SDS011;35724;49.324;-123.118;2023-02-28T12:14:49;0.40;;;0.40;;
12842;SDS011;35724;49.324;-123.118;2023-02-28T12:25:24;0.32;;;0.32;;
12842;SDS011;35724;49.324;-123.118;2023-02-28T12:35:49;0.50;;;0.50;;
12842;SDS011;35724;49.324;-123.118;2023-02-28T12:46:02;0.30;;;0.30;;
12842;SDS011;35724;49.324;-123.118;2023-02-28T12:56:18;0.40;;;0.40;;
12842;SDS011;35724;49.324;-123.118;2023-02-28T13:06:37;0.35;;;0.35;;
12842;SDS011;35724;49.324;-123.118;2023-02-28T13:17:01;0.32;;;0.32;;
12842;SDS011;35724;49.324;-123.118;2023-02-28T13:27:31;0.30;;;0.30;;
12842;SDS011;35724;49.324;-123.118;2023-02-28T13:37:46;0.30;;;0.30;;
12842;SDS011;35724;49.324;-123.118;2023-02-28T13:47:58;0.40;;;0.40;;
12842;SDS011;35724;49.324;-123.118;2023-02-28T13:58:15;0.40;;;0.40;;
12842;SDS011;35724;49.324;-123.118;2023-02-28T14:08:46;0.40;;;0.40;;
12842;SDS011;35724;49.324;-123.118;2023-02-28T14:19:00;0.30;;;0.30;;
12842;SDS011;35724;49.324;-123.118;2023-02-28T14:29:16;0.30;;;0.30;;
12842;SDS011;35724;49.324;-123.118;2023-02-28T14:39:51;0.30;;;0.30;;
12842;SDS011;35724;49.324;-123.118;2023-02-28T14:49:59;0.30;;;0.30;;
12842;SDS011;35724;49.324;-123.118;2023-02-28T15:00:14;0.30;;;0.30;;
12842;SDS011;35724;49.324;-123.118;2023-02-28T15:10:27;0.30;;;0.30;;
12842;SDS011;35724;49.324;-123.118;2023-02-28T15:20:36;0.43;;;0.40;;
12842;SDS011;35724;49.324;-123.118;2023-02-28T15:41:29;1.58;;;0.85;;
12842;SDS011;35724;49.324;-123.118;2023-02-28T15:51:38;1.30;;;0.90;;
12842;SDS011;35724;49.324;-123.118;2023-02-28T16:01:47;1.15;;;0.90;;
12842;SDS011;35724;49.324;-123.118;2023-02-28T16:12:18;2.47;;;0.80;;
12842;SDS011;35724;49.324;-123.118;2023-02-28T16:22:28;1.02;;;0.80;;
12842;SDS011;35724;49.324;-123.118;2023-02-28T16:32:35;2.67;;;1.05;;
12842;SDS011;35724;49.324;-123.118;2023-02-28T16:42:44;2.58;;;1.10;;
12842;SDS011;35724;49.324;-123.118;2023-02-28T16:52:52;2.25;;;1.20;;
12842;SDS011;35724;49.324;-123.118;2023-02-28T17:03:02;2.25;;;1.55;;
12842;SDS011;35724;49.324;-123.118;2023-02-28T17:13:10;3.28;;;1.60;;
12842;SDS011;35724;49.324;-123.118;2023-02-28T17:23:19;3.00;;;1.50;;
12842;SDS011;35724;49.324;-123.118;2023-02-28T17:33:27;3.35;;;1.70;;
12842;SDS011;35724;49.324;-123.118;2023-02-28T17:43:35;1.63;;;1.00;;
12842;SDS011;35724;49.324;-123.118;2023-02-28T17:53:43;1.42;;;0.90;;
12842;SDS011;35724;49.324;-123.118;2023-02-28T18:03:58;0.50;;;0.50;;
12842;SDS011;35724;49.324;-123.118;2023-02-28T18:14:11;0.50;;;0.50;;
12842;SDS011;35724;49.324;-123.118;2023-02-28T18:24:24;0.60;;;0.60;;
12842;SDS011;35724;49.324;-123.118;2023-02-28T18:34:31;0.60;;;0.60;;
12842;SDS011;35724;49.324;-123.118;2023-02-28T18:44:41;0.80;;;0.80;;
12842;SDS011;35724;49.324;-123.118;2023-02-28T18:54:48;0.95;;;0.90;;
12842;SDS011;35724;49.324;-123.118;2023-02-28T19:04:57;1.45;;;1.30;;
12842;SDS011;35724;49.324;-123.118;2023-02-28T19:15:09;3.30;;;1.65;;
12842;SDS011;35724;49.324;-123.118;2023-02-28T19:26:10;2.85;;;1.75;;
12842;SDS011;35724;49.324;-123.118;2023-02-28T19:36:25;2.53;;;1.70;;
12842;SDS011;35724;49.324;-123.118;2023-02-28T19:47:00;1.58;;;1.45;;
12842;SDS011;35724;49.324;-123.118;2023-02-28T19:57:17;1.58;;;1.48;;
12842;SDS011;35724;49.324;-123.118;2023-02-28T20:07:31;1.60;;;1.50;;
12842;SDS011;35724;49.324;-123.118;2023-02-28T20:17:41;3.53;;;1.70;;
12842;SDS011;35724;49.324;-123.118;2023-02-28T20:38:38;2.65;;;2.15;;
12842;SDS011;35724;49.324;-123.118;2023-02-28T21:13:29;2.90;;;2.70;;
12842;SDS011;35724;49.324;-123.118;2023-02-28T21:23:44;2.72;;;1.65;;
12842;SDS011;35724;49.324;-123.118;2023-02-28T21:34:33;3.78;;;1.23;;
12842;SDS011;35724;49.324;-123.118;2023-02-28T23:39:00;1.45;;;0.80;;
12842;SDS011;35724;49.324;-123.118;2023-02-28T23:51:03;1.80;;;1.30;;
